createdAt,value
2023-05-19T00:00:01.195Z,23.6
2023-05-19T00:05:01.194Z,23.6
2023-05-19T00:10:01.188Z,23.7
2023-05-19T00:15:01.276Z,23.6
2023-05-19T00:20:01.278Z,23.7
2023-05-19T00:25:01.116Z,23.7
2023-05-19T00:30:01.204Z,23.7
2023-05-19T00:35:01.202Z,23.6
2023-05-19T00:40:01.189Z,23.6
2023-05-19T00:45:01.133Z,23.5
2023-05-19T00:50:01.137Z,23.5
2023-05-19T00:55:01.278Z,23.5
2023-05-19T01:00:01.171Z,23.4
2023-05-19T01:05:01.121Z,23.3
2023-05-19T01:10:01.114Z,23.3
2023-05-19T01:15:01.179Z,23.2
2023-05-19T01:20:01.578Z,23.2
2023-05-19T01:25:00.516Z,23.1
2023-05-19T01:30:01.143Z,23.0
2023-05-19T01:35:01.217Z,23.0
2023-05-19T01:40:01.728Z,23.0
2023-05-19T01:45:01.125Z,22.9
2023-05-19T01:50:01.110Z,22.9
2023-05-19T01:55:01.135Z,22.9
2023-05-19T02:00:01.138Z,22.9
2023-05-19T02:05:01.160Z,22.8
2023-05-19T02:10:01.150Z,22.8
2023-05-19T02:15:01.164Z,22.8
2023-05-19T02:20:01.127Z,22.8
2023-05-19T02:25:01.093Z,22.7
2023-05-19T02:30:01.537Z,22.7
2023-05-19T02:35:01.153Z,22.7
2023-05-19T02:40:01.133Z,22.6
2023-05-19T02:45:01.135Z,22.6
2023-05-19T02:50:01.164Z,22.6
2023-05-19T02:55:01.138Z,22.5
2023-05-19T03:00:01.124Z,22.5
2023-05-19T03:05:01.140Z,22.5
2023-05-19T03:10:01.178Z,22.5
2023-05-19T03:15:01.189Z,22.5
2023-05-19T03:20:00.493Z,22.5
2023-05-19T03:25:01.140Z,22.5
2023-05-19T03:30:01.251Z,22.5
2023-05-19T03:35:01.212Z,22.4
2023-05-19T03:40:01.141Z,22.4
2023-05-19T03:45:01.132Z,22.4
2023-05-19T03:50:01.153Z,22.4
2023-05-19T03:55:01.185Z,22.4
2023-05-19T04:00:01.129Z,22.4
2023-05-19T04:05:01.127Z,22.4
2023-05-19T04:10:01.183Z,22.3
2023-05-19T04:15:01.154Z,22.3
2023-05-19T04:20:01.134Z,22.3
2023-05-19T04:25:01.171Z,22.3
2023-05-19T04:30:01.105Z,22.3
2023-05-19T04:35:01.198Z,22.3
2023-05-19T04:40:01.186Z,22.3
2023-05-19T04:45:01.139Z,22.3
2023-05-19T04:50:01.144Z,22.3
2023-05-19T04:55:01.213Z,22.3
2023-05-19T05:00:01.133Z,22.3
2023-05-19T05:05:01.139Z,22.2
2023-05-19T05:10:01.475Z,22.2
2023-05-19T05:15:01.155Z,22.2
2023-05-19T05:20:01.169Z,22.2
2023-05-19T05:25:01.171Z,22.2
2023-05-19T05:30:01.106Z,22.2
2023-05-19T05:35:01.241Z,22.2
2023-05-19T05:40:01.191Z,22.2
2023-05-19T05:45:01.202Z,22.2
2023-05-19T05:50:01.168Z,22.2
2023-05-19T05:55:01.182Z,22.2
2023-05-19T06:00:01.223Z,22.2
2023-05-19T06:05:01.185Z,22.2
2023-05-19T06:10:01.161Z,22.2
2023-05-19T06:15:01.166Z,22.3
2023-05-19T06:20:01.121Z,22.2
2023-05-19T06:25:01.153Z,22.2
2023-05-19T06:30:01.109Z,22.2
2023-05-19T06:35:01.132Z,22.2
2023-05-19T06:40:01.202Z,22.3
2023-05-19T06:45:01.133Z,22.3
2023-05-19T06:50:01.140Z,22.3
2023-05-19T06:55:01.149Z,22.3
2023-05-19T07:00:01.178Z,22.3
2023-05-19T07:05:01.106Z,22.3
2023-05-19T07:10:01.146Z,22.3
2023-05-19T07:15:01.221Z,22.3
2023-05-19T07:20:01.201Z,22.3
2023-05-19T07:25:01.209Z,22.4
2023-05-19T07:30:01.153Z,22.3
2023-05-19T07:35:01.209Z,22.3
2023-05-19T07:40:01.152Z,22.4
2023-05-19T07:45:01.167Z,22.4
2023-05-19T07:50:01.200Z,22.4
2023-05-19T07:55:01.200Z,22.4
2023-05-19T08:00:01.193Z,22.4
2023-05-19T08:05:01.220Z,22.4
2023-05-19T08:10:01.180Z,22.3
2023-05-19T08:15:01.712Z,22.3
2023-05-19T08:20:01.204Z,22.2
2023-05-19T08:25:01.212Z,22.2
2023-05-19T08:30:01.190Z,22.2
2023-05-19T08:35:01.194Z,22.1
2023-05-19T08:40:01.149Z,22.1
2023-05-19T08:45:01.205Z,22.1
2023-05-19T08:50:01.145Z,22.1
2023-05-19T08:55:01.290Z,22.1
2023-05-19T09:00:01.156Z,22.1
2023-05-19T09:05:01.229Z,22.1
2023-05-19T09:10:01.256Z,22.1
2023-05-19T09:15:01.200Z,22.1
2023-05-19T09:20:01.225Z,22.1
2023-05-19T09:25:01.292Z,22.2
2023-05-19T09:30:01.164Z,22.2
2023-05-19T09:35:01.136Z,22.2
2023-05-19T09:40:01.183Z,22.3
2023-05-19T09:45:01.152Z,22.3
2023-05-19T09:50:01.156Z,22.3
2023-05-19T09:55:01.233Z,22.4
2023-05-19T10:00:01.275Z,22.4
2023-05-19T10:05:01.276Z,22.5
2023-05-19T10:10:01.106Z,22.5
2023-05-19T10:15:01.167Z,22.5
2023-05-19T10:20:01.146Z,22.6
2023-05-19T10:25:01.178Z,22.7
2023-05-19T10:30:01.171Z,22.7
2023-05-19T10:35:01.146Z,22.7
2023-05-19T10:40:01.214Z,22.8
2023-05-19T10:45:01.198Z,22.8
2023-05-19T10:50:01.229Z,22.8
2023-05-19T10:55:01.314Z,22.9
2023-05-19T11:00:01.203Z,22.9
2023-05-19T11:05:01.184Z,22.9
2023-05-19T11:10:01.153Z,23.0
2023-05-19T11:15:01.239Z,23.0
2023-05-19T11:20:01.364Z,23.0
2023-05-19T11:25:01.162Z,23.0
2023-05-19T11:30:01.155Z,23.0
2023-05-19T11:35:01.128Z,23.1
2023-05-19T11:40:00.485Z,23.1
2023-05-19T11:45:01.261Z,23.1
2023-05-19T11:50:01.156Z,23.2
2023-05-19T11:55:01.247Z,23.2
2023-05-19T12:00:01.261Z,23.2
2023-05-19T12:05:01.262Z,23.2
2023-05-19T12:10:01.125Z,23.2
2023-05-19T12:15:01.147Z,23.2
2023-05-19T12:20:01.139Z,23.2
2023-05-19T12:25:01.198Z,23.2
2023-05-19T12:30:01.233Z,23.2
2023-05-19T12:35:01.112Z,23.2
2023-05-19T12:40:01.255Z,23.3
2023-05-19T12:45:02.909Z,23.3
2023-05-19T12:50:01.125Z,23.3
2023-05-19T12:55:01.312Z,23.4
2023-05-19T13:00:01.284Z,23.4
2023-05-19T13:05:01.111Z,23.4
2023-05-19T13:10:01.107Z,23.5
2023-05-19T13:15:01.184Z,23.5
2023-05-19T13:20:01.214Z,23.5
2023-05-19T13:25:01.112Z,23.5
2023-05-19T13:30:01.185Z,23.6
2023-05-19T13:35:01.205Z,23.6
2023-05-19T13:40:01.148Z,23.6
2023-05-19T13:45:01.177Z,23.6
2023-05-19T13:50:01.169Z,23.6
2023-05-19T13:55:00.573Z,23.7
2023-05-19T14:00:03.575Z,23.6
2023-05-19T14:05:01.101Z,23.6
2023-05-19T14:10:01.138Z,23.6
2023-05-19T14:15:01.243Z,23.7
2023-05-19T14:20:01.149Z,23.7
2023-05-19T14:25:01.142Z,23.7
2023-05-19T14:30:01.156Z,23.8
2023-05-19T14:35:00.685Z,23.8
2023-05-19T14:40:01.120Z,23.8
2023-05-19T14:45:01.156Z,23.8
2023-05-19T14:50:01.195Z,23.8
2023-05-19T14:55:01.136Z,23.8
2023-05-19T15:00:01.330Z,23.9
2023-05-19T15:05:01.132Z,23.9
2023-05-19T15:10:01.082Z,23.9
2023-05-19T15:15:01.231Z,23.9
2023-05-19T15:20:01.147Z,23.9
2023-05-19T15:25:01.225Z,23.9
2023-05-19T15:30:01.298Z,24.0
2023-05-19T15:35:01.157Z,24.0
2023-05-19T15:40:01.145Z,24.0
2023-05-19T15:45:01.104Z,24.0
2023-05-19T15:50:01.106Z,24.0
2023-05-19T15:55:01.193Z,24.0
2023-05-19T16:00:01.237Z,24.1
2023-05-19T16:05:01.111Z,24.1
2023-05-19T16:10:01.170Z,24.1
2023-05-19T16:15:01.299Z,24.1
2023-05-19T16:20:01.256Z,24.1
2023-05-19T16:25:01.133Z,24.1
2023-05-19T16:30:01.234Z,24.1
2023-05-19T16:35:01.208Z,24.1
2023-05-19T16:40:01.145Z,24.1
2023-05-19T16:45:01.176Z,24.1
2023-05-19T16:50:01.188Z,24.2
2023-05-19T16:55:01.229Z,24.1
2023-05-19T17:00:00.505Z,24.1
2023-05-19T17:05:01.148Z,24.2
2023-05-19T17:10:01.222Z,24.1
2023-05-19T17:15:01.218Z,24.2
2023-05-19T17:20:01.174Z,24.1
2023-05-19T17:25:01.184Z,24.1
2023-05-19T17:30:01.201Z,24.1
2023-05-19T17:35:01.182Z,24.1
2023-05-19T17:40:01.338Z,24.1
2023-05-19T17:45:01.117Z,24.1
2023-05-19T17:50:01.153Z,24.2
2023-05-19T17:55:01.205Z,24.2
2023-05-19T18:00:01.181Z,24.2
2023-05-19T18:05:01.124Z,24.2
2023-05-19T18:10:03.072Z,24.2
2023-05-19T18:15:01.381Z,24.2
2023-05-19T18:20:01.153Z,24.2
2023-05-19T18:25:01.167Z,24.2
2023-05-19T18:30:01.253Z,24.2
2023-05-19T18:35:01.105Z,24.2
2023-05-19T18:40:01.199Z,24.1
2023-05-19T18:45:01.144Z,24.1
2023-05-19T18:50:00.532Z,24.1
2023-05-19T18:55:01.191Z,24.1
2023-05-19T19:00:02.023Z,24.0
2023-05-19T19:05:01.193Z,24.0
2023-05-19T19:10:01.176Z,24.0
2023-05-19T19:15:01.241Z,24.0
2023-05-19T19:20:01.207Z,23.9
2023-05-19T19:25:01.167Z,23.8
2023-05-19T19:30:01.309Z,23.7
2023-05-19T19:35:01.270Z,23.6
2023-05-19T19:40:01.165Z,23.5
2023-05-19T19:45:01.253Z,23.4
2023-05-19T19:50:01.157Z,23.3
2023-05-19T19:55:01.189Z,23.2
2023-05-19T20:00:01.226Z,23.1
2023-05-19T20:05:01.194Z,23.0
2023-05-19T20:10:01.128Z,23.0
2023-05-19T20:15:01.253Z,22.9
2023-05-19T20:20:01.115Z,23.0
2023-05-19T20:25:01.185Z,23.0
2023-05-19T20:30:01.282Z,23.1
2023-05-19T20:35:01.155Z,23.1
2023-05-19T20:40:01.152Z,23.1
2023-05-19T20:45:01.373Z,23.2
2023-05-19T20:50:01.191Z,23.2
2023-05-19T20:55:01.114Z,23.2
2023-05-19T21:00:01.194Z,23.3
2023-05-19T21:05:01.240Z,23.3
2023-05-19T21:10:01.114Z,23.3
2023-05-19T21:15:01.328Z,23.3
2023-05-19T21:20:01.161Z,23.4
2023-05-19T21:25:00.522Z,23.4
2023-05-19T21:30:01.177Z,23.3
2023-05-19T21:35:01.113Z,23.4
2023-05-19T21:40:01.271Z,23.4
2023-05-19T21:45:01.204Z,23.4
2023-05-19T21:50:01.183Z,23.4
2023-05-19T21:55:01.132Z,23.4
2023-05-19T22:00:01.196Z,23.5
2023-05-19T22:05:01.150Z,23.4
2023-05-19T22:10:00.536Z,23.4
2023-05-19T22:15:01.241Z,23.5
2023-05-19T22:20:01.170Z,23.5
2023-05-19T22:25:01.149Z,23.5
2023-05-19T22:30:01.233Z,23.5
2023-05-19T22:35:01.168Z,23.5
2023-05-19T22:40:01.146Z,23.5
2023-05-19T22:45:01.141Z,23.5
2023-05-19T22:50:01.138Z,23.5
2023-05-19T22:55:01.183Z,23.5
2023-05-19T23:00:01.144Z,23.5
2023-05-19T23:05:01.217Z,23.6
2023-05-19T23:10:01.315Z,23.5
2023-05-19T23:15:01.203Z,23.5
2023-05-19T23:20:01.172Z,23.3
2023-05-19T23:25:01.163Z,23.2
2023-05-19T23:30:01.203Z,23.0
2023-05-19T23:35:01.172Z,22.9
2023-05-19T23:40:01.183Z,22.9
2023-05-19T23:45:01.174Z,22.7
2023-05-19T23:50:01.167Z,22.6
2023-05-19T23:55:01.205Z,22.5
